sensor_id;sensor_type;location;lat;lon;timestamp;P1;durP1;ratioP1;P2;durP2;ratioP2
52978;SDS011;63430;53.186;6.598;2023-01-23T00:00:27;13.18;;;7.60;;
52978;SDS011;63430;53.186;6.598;2023-01-23T00:02:29;11.80;;;7.30;;
52978;SDS011;63430;53.186;6.598;2023-01-23T00:04:32;11.88;;;8.85;;
52978;SDS011;63430;53.186;6.598;2023-01-23T00:06:35;8.52;;;6.93;;
52978;SDS011;63430;53.186;6.598;2023-01-23T00:08:38;10.10;;;7.50;;
52978;SDS011;63430;53.186;6.598;2023-01-23T00:10:42;7.38;;;6.72;;
52978;SDS011;63430;53.186;6.598;2023-01-23T00:12:44;7.57;;;6.85;;
52978;SDS011;63430;53.186;6.598;2023-01-23T00:14:49;8.90;;;8.00;;
52978;SDS011;63430;53.186;6.598;2023-01-23T00:16:54;8.63;;;7.55;;
52978;SDS011;63430;53.186;6.598;2023-01-23T00:18:58;8.05;;;7.28;;
52978;SDS011;63430;53.186;6.598;2023-01-23T00:21:02;8.85;;;7.97;;
52978;SDS011;63430;53.186;6.598;2023-01-23T00:23:06;11.50;;;7.43;;
52978;SDS011;63430;53.186;6.598;2023-01-23T00:25:09;7.93;;;7.15;;
52978;SDS011;63430;53.186;6.598;2023-01-23T00:27:12;8.02;;;7.38;;
52978;SDS011;63430;53.186;6.598;2023-01-23T00:29:14;8.20;;;7.40;;
52978;SDS011;63430;53.186;6.598;2023-01-23T00:31:17;10.70;;;8.30;;
52978;SDS011;63430;53.186;6.598;2023-01-23T00:33:25;8.52;;;7.65;;
52978;SDS011;63430;53.186;6.598;2023-01-23T00:35:29;9.50;;;6.78;;
52978;SDS011;63430;53.186;6.598;2023-01-23T00:37:31;7.43;;;6.82;;
52978;SDS011;63430;53.186;6.598;2023-01-23T00:39:34;9.40;;;7.60;;
52978;SDS011;63430;53.186;6.598;2023-01-23T00:41:36;8.10;;;7.30;;
52978;SDS011;63430;53.186;6.598;2023-01-23T00:43:39;11.65;;;8.70;;
52978;SDS011;63430;53.186;6.598;2023-01-23T00:45:41;14.20;;;10.95;;
52978;SDS011;63430;53.186;6.598;2023-01-23T00:47:46;16.55;;;11.70;;
52978;SDS011;63430;53.186;6.598;2023-01-23T00:49:51;19.58;;;13.48;;
52978;SDS011;63430;53.186;6.598;2023-01-23T00:51:59;12.15;;;10.38;;
52978;SDS011;63430;53.186;6.598;2023-01-23T00:54:01;13.07;;;9.95;;
52978;SDS011;63430;53.186;6.598;2023-01-23T00:56:05;10.32;;;8.40;;
52978;SDS011;63430;53.186;6.598;2023-01-23T00:58:09;9.02;;;8.20;;
52978;SDS011;63430;53.186;6.598;2023-01-23T01:00:12;13.00;;;9.25;;
52978;SDS011;63430;53.186;6.598;2023-01-23T01:02:16;15.18;;;9.88;;
52978;SDS011;63430;53.186;6.598;2023-01-23T01:04:18;13.05;;;8.65;;
52978;SDS011;63430;53.186;6.598;2023-01-23T01:06:24;15.43;;;7.68;;
52978;SDS011;63430;53.186;6.598;2023-01-23T01:08:26;8.90;;;7.45;;
52978;SDS011;63430;53.186;6.598;2023-01-23T01:10:31;9.05;;;7.82;;
52978;SDS011;63430;53.186;6.598;2023-01-23T01:12:33;8.60;;;7.82;;
52978;SDS011;63430;53.186;6.598;2023-01-23T01:14:40;12.98;;;8.00;;
52978;SDS011;63430;53.186;6.598;2023-01-23T01:16:44;10.52;;;8.20;;
52978;SDS011;63430;53.186;6.598;2023-01-23T01:18:47;7.65;;;6.95;;
52978;SDS011;63430;53.186;6.598;2023-01-23T01:20:50;8.18;;;7.38;;
52978;SDS011;63430;53.186;6.598;2023-01-23T01:22:55;9.00;;;7.05;;
52978;SDS011;63430;53.186;6.598;2023-01-23T01:24:59;8.38;;;7.65;;
52978;SDS011;63430;53.186;6.598;2023-01-23T01:27:09;12.50;;;7.53;;
52978;SDS011;63430;53.186;6.598;2023-01-23T01:29:12;11.55;;;7.88;;
52978;SDS011;63430;53.186;6.598;2023-01-23T01:31:17;9.40;;;7.68;;
52978;SDS011;63430;53.186;6.598;2023-01-23T01:33:21;8.70;;;7.80;;
52978;SDS011;63430;53.186;6.598;2023-01-23T01:35:26;7.75;;;7.05;;
52978;SDS011;63430;53.186;6.598;2023-01-23T01:37:29;9.00;;;7.57;;
52978;SDS011;63430;53.186;6.598;2023-01-23T01:39:36;9.80;;;8.18;;
52978;SDS011;63430;53.186;6.598;2023-01-23T01:41:38;8.70;;;7.90;;
52978;SDS011;63430;53.186;6.598;2023-01-23T01:43:41;13.43;;;9.70;;
52978;SDS011;63430;53.186;6.598;2023-01-23T01:45:54;14.50;;;10.77;;
52978;SDS011;63430;53.186;6.598;2023-01-23T01:48:09;26.80;;;11.55;;
52978;SDS011;63430;53.186;6.598;2023-01-23T01:50:13;12.35;;;11.05;;
52978;SDS011;63430;53.186;6.598;2023-01-23T01:52:16;15.05;;;10.93;;
52978;SDS011;63430;53.186;6.598;2023-01-23T01:54:23;21.77;;;10.82;;
52978;SDS011;63430;53.186;6.598;2023-01-23T01:56:33;16.52;;;10.98;;
52978;SDS011;63430;53.186;6.598;2023-01-23T01:58:40;14.32;;;10.45;;
52978;SDS011;63430;53.186;6.598;2023-01-23T02:00:46;14.25;;;11.70;;
52978;SDS011;63430;53.186;6.598;2023-01-23T02:02:51;17.85;;;11.77;;
52978;SDS011;63430;53.186;6.598;2023-01-23T02:04:57;16.45;;;11.15;;
52978;SDS011;63430;53.186;6.598;2023-01-23T02:07:06;15.23;;;11.95;;
52978;SDS011;63430;53.186;6.598;2023-01-23T02:09:16;15.00;;;10.25;;
52978;SDS011;63430;53.186;6.598;2023-01-23T02:11:40;10.35;;;9.25;;
52978;SDS011;63430;53.186;6.598;2023-01-23T02:13:44;9.18;;;8.38;;
52978;SDS011;63430;53.186;6.598;2023-01-23T02:15:47;9.77;;;8.35;;
52978;SDS011;63430;53.186;6.598;2023-01-23T02:17:50;8.88;;;8.05;;
52978;SDS011;63430;53.186;6.598;2023-01-23T02:19:57;11.68;;;9.50;;
52978;SDS011;63430;53.186;6.598;2023-01-23T02:22:10;13.85;;;11.63;;
52978;SDS011;63430;53.186;6.598;2023-01-23T02:24:24;16.15;;;11.45;;
52978;SDS011;63430;53.186;6.598;2023-01-23T02:26:36;14.27;;;11.15;;
52978;SDS011;63430;53.186;6.598;2023-01-23T02:28:43;15.07;;;8.98;;
52978;SDS011;63430;53.186;6.598;2023-01-23T02:30:52;10.23;;;9.13;;
52978;SDS011;63430;53.186;6.598;2023-01-23T02:33:06;11.75;;;9.68;;
52978;SDS011;63430;53.186;6.598;2023-01-23T02:35:11;10.07;;;9.07;;
52978;SDS011;63430;53.186;6.598;2023-01-23T02:37:16;9.02;;;8.15;;
52978;SDS011;63430;53.186;6.598;2023-01-23T02:39:20;9.38;;;8.48;;
52978;SDS011;63430;53.186;6.598;2023-01-23T02:41:27;9.50;;;8.52;;
52978;SDS011;63430;53.186;6.598;2023-01-23T02:43:42;11.10;;;8.70;;
52978;SDS011;63430;53.186;6.598;2023-01-23T02:45:46;14.90;;;9.18;;
52978;SDS011;63430;53.186;6.598;2023-01-23T02:47:50;14.43;;;9.30;;
52978;SDS011;63430;53.186;6.598;2023-01-23T02:49:52;10.75;;;8.30;;
52978;SDS011;63430;53.186;6.598;2023-01-23T02:51:55;9.27;;;7.82;;
52978;SDS011;63430;53.186;6.598;2023-01-23T02:53:58;13.13;;;8.80;;
52978;SDS011;63430;53.186;6.598;2023-01-23T02:56:00;12.05;;;7.53;;
52978;SDS011;63430;53.186;6.598;2023-01-23T02:58:03;10.02;;;8.18;;
52978;SDS011;63430;53.186;6.598;2023-01-23T03:00:28;12.32;;;7.88;;
52978;SDS011;63430;53.186;6.598;2023-01-23T03:02:30;8.82;;;7.68;;
52978;SDS011;63430;53.186;6.598;2023-01-23T03:04:32;8.95;;;7.50;;
52978;SDS011;63430;53.186;6.598;2023-01-23T03:06:35;12.85;;;8.02;;
52978;SDS011;63430;53.186;6.598;2023-01-23T03:08:38;9.65;;;8.40;;
52978;SDS011;63430;53.186;6.598;2023-01-23T03:10:48;11.30;;;8.50;;
52978;SDS011;63430;53.186;6.598;2023-01-23T03:12:51;9.38;;;7.88;;
52978;SDS011;63430;53.186;6.598;2023-01-23T03:14:53;8.57;;;7.68;;
52978;SDS011;63430;53.186;6.598;2023-01-23T03:16:59;9.48;;;8.32;;
52978;SDS011;63430;53.186;6.598;2023-01-23T03:19:08;8.27;;;7.45;;
52978;SDS011;63430;53.186;6.598;2023-01-23T03:21:11;10.63;;;7.57;;
52978;SDS011;63430;53.186;6.598;2023-01-23T03:23:15;11.55;;;8.32;;
52978;SDS011;63430;53.186;6.598;2023-01-23T03:25:19;9.20;;;8.20;;
52978;SDS011;63430;53.186;6.598;2023-01-23T03:27:24;10.73;;;7.68;;
52978;SDS011;63430;53.186;6.598;2023-01-23T03:29:29;10.32;;;8.45;;
52978;SDS011;63430;53.186;6.598;2023-01-23T03:31:51;10.52;;;7.78;;
52978;SDS011;63430;53.186;6.598;2023-01-23T03:33:56;11.98;;;8.82;;
52978;SDS011;63430;53.186;6.598;2023-01-23T03:35:59;8.82;;;8.05;;
52978;SDS011;63430;53.186;6.598;2023-01-23T03:38:02;10.30;;;9.23;;
52978;SDS011;63430;53.186;6.598;2023-01-23T03:40:05;12.50;;;10.07;;
52978;SDS011;63430;53.186;6.598;2023-01-23T03:42:29;13.23;;;9.80;;
52978;SDS011;63430;53.186;6.598;2023-01-23T03:44:35;13.43;;;11.20;;
52978;SDS011;63430;53.186;6.598;2023-01-23T03:46:38;21.52;;;12.95;;
52978;SDS011;63430;53.186;6.598;2023-01-23T03:48:40;22.30;;;12.38;;
52978;SDS011;63430;53.186;6.598;2023-01-23T03:50:45;18.25;;;13.85;;
52978;SDS011;63430;53.186;6.598;2023-01-23T03:52:48;17.48;;;12.77;;
52978;SDS011;63430;53.186;6.598;2023-01-23T03:54:52;16.00;;;12.02;;
52978;SDS011;63430;53.186;6.598;2023-01-23T03:56:54;10.20;;;9.15;;
52978;SDS011;63430;53.186;6.598;2023-01-23T03:59:33;10.15;;;8.32;;
52978;SDS011;63430;53.186;6.598;2023-01-23T04:01:39;9.00;;;8.07;;
52978;SDS011;63430;53.186;6.598;2023-01-23T04:03:43;13.15;;;7.90;;
52978;SDS011;63430;53.186;6.598;2023-01-23T04:05:48;8.80;;;7.65;;
52978;SDS011;63430;53.186;6.598;2023-01-23T04:07:55;9.57;;;8.52;;
52978;SDS011;63430;53.186;6.598;2023-01-23T04:09:59;9.13;;;7.93;;
52978;SDS011;63430;53.186;6.598;2023-01-23T04:12:01;11.30;;;8.60;;
52978;SDS011;63430;53.186;6.598;2023-01-23T04:14:07;11.90;;;8.60;;
52978;SDS011;63430;53.186;6.598;2023-01-23T04:16:09;12.32;;;9.02;;
52978;SDS011;63430;53.186;6.598;2023-01-23T04:18:12;15.23;;;8.18;;
52978;SDS011;63430;53.186;6.598;2023-01-23T04:20:14;10.50;;;9.05;;
52978;SDS011;63430;53.186;6.598;2023-01-23T04:22:23;10.00;;;8.55;;
52978;SDS011;63430;53.186;6.598;2023-01-23T04:24:26;8.55;;;7.75;;
52978;SDS011;63430;53.186;6.598;2023-01-23T04:26:29;12.50;;;8.20;;
52978;SDS011;63430;53.186;6.598;2023-01-23T04:28:31;16.15;;;8.50;;
52978;SDS011;63430;53.186;6.598;2023-01-23T04:30:34;9.07;;;8.10;;
52978;SDS011;63430;53.186;6.598;2023-01-23T04:32:45;12.23;;;9.18;;
52978;SDS011;63430;53.186;6.598;2023-01-23T04:34:54;11.00;;;8.02;;
52978;SDS011;63430;53.186;6.598;2023-01-23T04:36:59;12.40;;;8.85;;
52978;SDS011;63430;53.186;6.598;2023-01-23T04:39:05;16.42;;;8.90;;
52978;SDS011;63430;53.186;6.598;2023-01-23T04:41:09;10.80;;;7.88;;
52978;SDS011;63430;53.186;6.598;2023-01-23T04:43:18;12.43;;;9.02;;
52978;SDS011;63430;53.186;6.598;2023-01-23T04:45:24;10.27;;;7.80;;
52978;SDS011;63430;53.186;6.598;2023-01-23T04:47:26;12.02;;;8.40;;
52978;SDS011;63430;53.186;6.598;2023-01-23T04:49:29;8.45;;;7.65;;
52978;SDS011;63430;53.186;6.598;2023-01-23T04:51:32;8.30;;;7.57;;
52978;SDS011;63430;53.186;6.598;2023-01-23T04:53:35;9.35;;;8.32;;
52978;SDS011;63430;53.186;6.598;2023-01-23T04:55:40;10.45;;;8.35;;
52978;SDS011;63430;53.186;6.598;2023-01-23T04:57:49;9.13;;;8.27;;
52978;SDS011;63430;53.186;6.598;2023-01-23T04:59:59;10.95;;;8.85;;
52978;SDS011;63430;53.186;6.598;2023-01-23T05:02:04;8.95;;;8.10;;
52978;SDS011;63430;53.186;6.598;2023-01-23T05:04:13;10.20;;;8.35;;
52978;SDS011;63430;53.186;6.598;2023-01-23T05:06:16;9.80;;;8.03;;
52978;SDS011;63430;53.186;6.598;2023-01-23T05:08:19;7.90;;;7.20;;
52978;SDS011;63430;53.186;6.598;2023-01-23T05:10:29;9.38;;;8.40;;
52978;SDS011;63430;53.186;6.598;2023-01-23T05:12:40;8.38;;;7.47;;
52978;SDS011;63430;53.186;6.598;2023-01-23T05:14:43;8.95;;;8.02;;
52978;SDS011;63430;53.186;6.598;2023-01-23T05:16:46;10.55;;;8.65;;
52978;SDS011;63430;53.186;6.598;2023-01-23T05:18:54;11.13;;;8.45;;
52978;SDS011;63430;53.186;6.598;2023-01-23T05:20:56;8.93;;;8.02;;
52978;SDS011;63430;53.186;6.598;2023-01-23T05:22:59;10.25;;;9.20;;
52978;SDS011;63430;53.186;6.598;2023-01-23T05:25:10;10.38;;;8.57;;
52978;SDS011;63430;53.186;6.598;2023-01-23T05:27:13;13.38;;;11.18;;
52978;SDS011;63430;53.186;6.598;2023-01-23T05:29:20;20.50;;;14.85;;
52978;SDS011;63430;53.186;6.598;2023-01-23T05:31:44;15.43;;;13.20;;
52978;SDS011;63430;53.186;6.598;2023-01-23T05:34:05;15.35;;;10.93;;
52978;SDS011;63430;53.186;6.598;2023-01-23T05:36:10;12.20;;;8.73;;
52978;SDS011;63430;53.186;6.598;2023-01-23T05:38:13;13.13;;;9.27;;
52978;SDS011;63430;53.186;6.598;2023-01-23T05:40:17;9.00;;;8.20;;
52978;SDS011;63430;53.186;6.598;2023-01-23T05:42:38;16.10;;;9.38;;
52978;SDS011;63430;53.186;6.598;2023-01-23T05:45:03;10.73;;;8.77;;
52978;SDS011;63430;53.186;6.598;2023-01-23T05:47:13;11.38;;;7.65;;
52978;SDS011;63430;53.186;6.598;2023-01-23T05:49:15;9.40;;;8.48;;
52978;SDS011;63430;53.186;6.598;2023-01-23T05:51:19;11.00;;;8.48;;
52978;SDS011;63430;53.186;6.598;2023-01-23T05:53:24;9.98;;;8.80;;
52978;SDS011;63430;53.186;6.598;2023-01-23T05:55:26;15.73;;;9.30;;
52978;SDS011;63430;53.186;6.598;2023-01-23T05:57:30;9.90;;;8.90;;
52978;SDS011;63430;53.186;6.598;2023-01-23T05:59:51;10.60;;;8.98;;
52978;SDS011;63430;53.186;6.598;2023-01-23T06:02:18;10.10;;;9.10;;
52978;SDS011;63430;53.186;6.598;2023-01-23T06:04:45;16.58;;;9.25;;
52978;SDS011;63430;53.186;6.598;2023-01-23T06:07:08;9.52;;;8.25;;
52978;SDS011;63430;53.186;6.598;2023-01-23T06:09:17;11.07;;;9.98;;
52978;SDS011;63430;53.186;6.598;2023-01-23T06:11:19;11.60;;;9.45;;
52978;SDS011;63430;53.186;6.598;2023-01-23T06:13:22;16.27;;;10.02;;
52978;SDS011;63430;53.186;6.598;2023-01-23T06:15:26;10.95;;;9.90;;
52978;SDS011;63430;53.186;6.598;2023-01-23T06:19:35;14.70;;;12.52;;
52978;SDS011;63430;53.186;6.598;2023-01-23T06:21:38;14.23;;;12.43;;
52978;SDS011;63430;53.186;6.598;2023-01-23T06:23:40;13.90;;;12.45;;
52978;SDS011;63430;53.186;6.598;2023-01-23T06:25:43;16.83;;;12.52;;
52978;SDS011;63430;53.186;6.598;2023-01-23T06:27:46;15.55;;;12.43;;
52978;SDS011;63430;53.186;6.598;2023-01-23T06:29:53;15.75;;;12.77;;
52978;SDS011;63430;53.186;6.598;2023-01-23T06:31:56;13.73;;;11.55;;
52978;SDS011;63430;53.186;6.598;2023-01-23T06:34:02;13.48;;;10.52;;
52978;SDS011;63430;53.186;6.598;2023-01-23T06:36:13;10.32;;;9.27;;
52978;SDS011;63430;53.186;6.598;2023-01-23T06:38:16;11.55;;;8.98;;
52978;SDS011;63430;53.186;6.598;2023-01-23T06:40:21;10.95;;;9.10;;
52978;SDS011;63430;53.186;6.598;2023-01-23T06:42:53;13.38;;;9.55;;
52978;SDS011;63430;53.186;6.598;2023-01-23T06:44:57;10.77;;;8.18;;
52978;SDS011;63430;53.186;6.598;2023-01-23T06:47:01;13.80;;;8.90;;
52978;SDS011;63430;53.186;6.598;2023-01-23T06:49:07;9.50;;;8.60;;
52978;SDS011;63430;53.186;6.598;2023-01-23T06:51:11;12.70;;;9.38;;
52978;SDS011;63430;53.186;6.598;2023-01-23T06:53:17;11.18;;;9.18;;
52978;SDS011;63430;53.186;6.598;2023-01-23T06:55:23;11.90;;;8.88;;
52978;SDS011;63430;53.186;6.598;2023-01-23T06:57:25;8.77;;;7.93;;
52978;SDS011;63430;53.186;6.598;2023-01-23T06:59:28;12.38;;;9.65;;
52978;SDS011;63430;53.186;6.598;2023-01-23T07:01:32;10.73;;;9.60;;
52978;SDS011;63430;53.186;6.598;2023-01-23T07:04:17;11.60;;;9.05;;
52978;SDS011;63430;53.186;6.598;2023-01-23T07:06:23;9.65;;;8.48;;
52978;SDS011;63430;53.186;6.598;2023-01-23T07:08:26;9.63;;;8.63;;
52978;SDS011;63430;53.186;6.598;2023-01-23T07:10:29;11.70;;;8.65;;
52978;SDS011;63430;53.186;6.598;2023-01-23T07:12:35;10.05;;;8.98;;
52978;SDS011;63430;53.186;6.598;2023-01-23T07:14:40;10.25;;;9.25;;
52978;SDS011;63430;53.186;6.598;2023-01-23T07:16:45;13.15;;;9.07;;
52978;SDS011;63430;53.186;6.598;2023-01-23T07:18:47;11.95;;;9.55;;
52978;SDS011;63430;53.186;6.598;2023-01-23T07:20:53;9.70;;;8.73;;
52978;SDS011;63430;53.186;6.598;2023-01-23T07:22:56;13.73;;;10.20;;
52978;SDS011;63430;53.186;6.598;2023-01-23T07:25:02;10.40;;;9.30;;
52978;SDS011;63430;53.186;6.598;2023-01-23T07:27:06;10.68;;;9.32;;
52978;SDS011;63430;53.186;6.598;2023-01-23T07:29:08;9.60;;;8.75;;
52978;SDS011;63430;53.186;6.598;2023-01-23T07:31:11;18.15;;;9.80;;
52978;SDS011;63430;53.186;6.598;2023-01-23T07:33:14;10.27;;;8.80;;
52978;SDS011;63430;53.186;6.598;2023-01-23T07:35:17;10.55;;;9.43;;
52978;SDS011;63430;53.186;6.598;2023-01-23T07:37:22;9.57;;;8.68;;
52978;SDS011;63430;53.186;6.598;2023-01-23T07:39:26;11.52;;;9.15;;
52978;SDS011;63430;53.186;6.598;2023-01-23T07:41:28;10.60;;;8.77;;
52978;SDS011;63430;53.186;6.598;2023-01-23T07:43:36;10.63;;;9.40;;
52978;SDS011;63430;53.186;6.598;2023-01-23T07:45:39;9.52;;;8.73;;
52978;SDS011;63430;53.186;6.598;2023-01-23T07:47:41;10.90;;;8.55;;
52978;SDS011;63430;53.186;6.598;2023-01-23T07:49:46;9.77;;;8.82;;
52978;SDS011;63430;53.186;6.598;2023-01-23T07:51:48;13.98;;;9.45;;
52978;SDS011;63430;53.186;6.598;2023-01-23T07:53:53;10.88;;;9.10;;
52978;SDS011;63430;53.186;6.598;2023-01-23T07:55:56;9.95;;;8.90;;
52978;SDS011;63430;53.186;6.598;2023-01-23T07:57:59;13.02;;;8.55;;
52978;SDS011;63430;53.186;6.598;2023-01-23T08:00:01;18.23;;;9.20;;
52978;SDS011;63430;53.186;6.598;2023-01-23T08:02:13;10.77;;;8.48;;
52978;SDS011;63430;53.186;6.598;2023-01-23T08:04:16;11.53;;;8.70;;
52978;SDS011;63430;53.186;6.598;2023-01-23T08:06:19;11.05;;;7.93;;
52978;SDS011;63430;53.186;6.598;2023-01-23T08:08:21;9.32;;;6.82;;
52978;SDS011;63430;53.186;6.598;2023-01-23T08:10:27;8.93;;;7.75;;
52978;SDS011;63430;53.186;6.598;2023-01-23T08:12:29;11.43;;;8.43;;
52978;SDS011;63430;53.186;6.598;2023-01-23T08:14:32;10.18;;;9.05;;
52978;SDS011;63430;53.186;6.598;2023-01-23T08:16:34;9.55;;;8.52;;
52978;SDS011;63430;53.186;6.598;2023-01-23T08:18:37;9.25;;;8.30;;
52978;SDS011;63430;53.186;6.598;2023-01-23T08:20:40;10.32;;;8.23;;
52978;SDS011;63430;53.186;6.598;2023-01-23T08:22:42;27.52;;;9.07;;
52978;SDS011;63430;53.186;6.598;2023-01-23T08:24:45;8.82;;;7.75;;
52978;SDS011;63430;53.186;6.598;2023-01-23T08:26:50;9.10;;;8.20;;
52978;SDS011;63430;53.186;6.598;2023-01-23T08:28:53;8.82;;;8.02;;
52978;SDS011;63430;53.186;6.598;2023-01-23T08:31:01;8.38;;;7.47;;
52978;SDS011;63430;53.186;6.598;2023-01-23T08:33:08;8.77;;;7.90;;
52978;SDS011;63430;53.186;6.598;2023-01-23T08:35:10;8.85;;;7.65;;
52978;SDS011;63430;53.186;6.598;2023-01-23T08:37:13;8.82;;;7.80;;
52978;SDS011;63430;53.186;6.598;2023-01-23T08:39:15;10.07;;;7.55;;
52978;SDS011;63430;53.186;6.598;2023-01-23T08:41:18;12.43;;;7.90;;
52978;SDS011;63430;53.186;6.598;2023-01-23T08:43:23;8.93;;;7.95;;
52978;SDS011;63430;53.186;6.598;2023-01-23T08:45:31;8.65;;;7.75;;
52978;SDS011;63430;53.186;6.598;2023-01-23T08:47:33;9.45;;;7.88;;
52978;SDS011;63430;53.186;6.598;2023-01-23T08:49:37;9.00;;;8.10;;
52978;SDS011;63430;53.186;6.598;2023-01-23T08:51:40;8.38;;;7.57;;
52978;SDS011;63430;53.186;6.598;2023-01-23T08:53:42;8.45;;;7.55;;
52978;SDS011;63430;53.186;6.598;2023-01-23T08:55:45;8.18;;;7.45;;
52978;SDS011;63430;53.186;6.598;2023-01-23T08:57:47;7.97;;;7.07;;
52978;SDS011;63430;53.186;6.598;2023-01-23T08:59:53;8.35;;;7.50;;
52978;SDS011;63430;53.186;6.598;2023-01-23T09:01:56;7.85;;;7.05;;
52978;SDS011;63430;53.186;6.598;2023-01-23T09:03:59;13.02;;;7.70;;
52978;SDS011;63430;53.186;6.598;2023-01-23T09:08:06;7.80;;;6.97;;
52978;SDS011;63430;53.186;6.598;2023-01-23T09:10:09;7.82;;;7.10;;
52978;SDS011;63430;53.186;6.598;2023-01-23T09:12:13;8.23;;;7.43;;
52978;SDS011;63430;53.186;6.598;2023-01-23T09:14:16;7.57;;;6.88;;
52978;SDS011;63430;53.186;6.598;2023-01-23T09:16:21;8.85;;;7.25;;
52978;SDS011;63430;53.186;6.598;2023-01-23T09:18:24;7.32;;;6.63;;
52978;SDS011;63430;53.186;6.598;2023-01-23T09:20:27;8.67;;;7.20;;
52978;SDS011;63430;53.186;6.598;2023-01-23T09:22:29;7.40;;;6.70;;
52978;SDS011;63430;53.186;6.598;2023-01-23T09:24:32;7.47;;;6.72;;
52978;SDS011;63430;53.186;6.598;2023-01-23T09:26:35;10.30;;;7.43;;
52978;SDS011;63430;53.186;6.598;2023-01-23T09:28:39;8.10;;;7.32;;
52978;SDS011;63430;53.186;6.598;2023-01-23T09:30:43;7.57;;;6.80;;
52978;SDS011;63430;53.186;6.598;2023-01-23T09:32:48;7.85;;;6.78;;
52978;SDS011;63430;53.186;6.598;2023-01-23T09:34:52;8.73;;;6.60;;
52978;SDS011;63430;53.186;6.598;2023-01-23T09:36:55;9.05;;;6.80;;
52978;SDS011;63430;53.186;6.598;2023-01-23T09:38:57;9.68;;;7.00;;
52978;SDS011;63430;53.186;6.598;2023-01-23T09:41:06;8.02;;;6.65;;
52978;SDS011;63430;53.186;6.598;2023-01-23T09:43:11;13.98;;;6.70;;
52978;SDS011;63430;53.186;6.598;2023-01-23T09:45:18;9.57;;;7.10;;
52978;SDS011;63430;53.186;6.598;2023-01-23T09:47:24;7.55;;;6.78;;
52978;SDS011;63430;53.186;6.598;2023-01-23T09:49:37;10.30;;;7.03;;
52978;SDS011;63430;53.186;6.598;2023-01-23T09:51:46;7.85;;;6.88;;
52978;SDS011;63430;53.186;6.598;2023-01-23T09:53:53;10.30;;;7.80;;
52978;SDS011;63430;53.186;6.598;2023-01-23T09:56:03;8.60;;;7.07;;
52978;SDS011;63430;53.186;6.598;2023-01-23T09:58:14;8.50;;;6.57;;
52978;SDS011;63430;53.186;6.598;2023-01-23T10:00:21;9.02;;;7.07;;
52978;SDS011;63430;53.186;6.598;2023-01-23T10:02:26;7.70;;;6.90;;
52978;SDS011;63430;53.186;6.598;2023-01-23T10:04:29;8.57;;;6.97;;
52978;SDS011;63430;53.186;6.598;2023-01-23T10:08:52;7.50;;;6.78;;
52978;SDS011;63430;53.186;6.598;2023-01-23T10:11:04;7.93;;;6.55;;
52978;SDS011;63430;53.186;6.598;2023-01-23T10:13:13;8.27;;;6.72;;
52978;SDS011;63430;53.186;6.598;2023-01-23T10:15:19;7.50;;;6.70;;
52978;SDS011;63430;53.186;6.598;2023-01-23T10:17:29;11.43;;;6.03;;
52978;SDS011;63430;53.186;6.598;2023-01-23T10:19:51;7.35;;;6.53;;
52978;SDS011;63430;53.186;6.598;2023-01-23T10:22:26;8.68;;;7.30;;
52978;SDS011;63430;53.186;6.598;2023-01-23T10:24:38;6.78;;;6.18;;
52978;SDS011;63430;53.186;6.598;2023-01-23T10:26:49;9.40;;;7.00;;
52978;SDS011;63430;53.186;6.598;2023-01-23T10:29:00;9.95;;;7.13;;
52978;SDS011;63430;53.186;6.598;2023-01-23T10:31:11;9.68;;;7.50;;
52978;SDS011;63430;53.186;6.598;2023-01-23T10:33:25;9.38;;;6.50;;
52978;SDS011;63430;53.186;6.598;2023-01-23T10:35:33;9.18;;;7.03;;
52978;SDS011;63430;53.186;6.598;2023-01-23T10:37:45;9.68;;;7.22;;
52978;SDS011;63430;53.186;6.598;2023-01-23T10:39:56;8.48;;;7.00;;
52978;SDS011;63430;53.186;6.598;2023-01-23T10:42:01;9.75;;;7.57;;
52978;SDS011;63430;53.186;6.598;2023-01-23T10:44:11;10.70;;;7.68;;
52978;SDS011;63430;53.186;6.598;2023-01-23T10:46:17;12.80;;;7.68;;
52978;SDS011;63430;53.186;6.598;2023-01-23T10:48:28;9.57;;;7.93;;
52978;SDS011;63430;53.186;6.598;2023-01-23T10:50:39;9.70;;;6.72;;
52978;SDS011;63430;53.186;6.598;2023-01-23T10:52:45;13.55;;;8.00;;
52978;SDS011;63430;53.186;6.598;2023-01-23T10:54:47;10.07;;;7.63;;
52978;SDS011;63430;53.186;6.598;2023-01-23T10:56:51;13.27;;;7.93;;
52978;SDS011;63430;53.186;6.598;2023-01-23T10:58:55;13.40;;;7.43;;
52978;SDS011;63430;53.186;6.598;2023-01-23T11:01:01;10.82;;;8.38;;
52978;SDS011;63430;53.186;6.598;2023-01-23T11:03:23;9.63;;;8.15;;
52978;SDS011;63430;53.186;6.598;2023-01-23T11:05:34;9.90;;;8.15;;
52978;SDS011;63430;53.186;6.598;2023-01-23T11:07:56;11.18;;;7.95;;
52978;SDS011;63430;53.186;6.598;2023-01-23T11:10:00;9.10;;;8.15;;
52978;SDS011;63430;53.186;6.598;2023-01-23T11:12:15;9.13;;;7.38;;
52978;SDS011;63430;53.186;6.598;2023-01-23T11:14:19;14.40;;;8.93;;
52978;SDS011;63430;53.186;6.598;2023-01-23T11:16:24;13.20;;;8.75;;
52978;SDS011;63430;53.186;6.598;2023-01-23T11:18:30;11.90;;;8.63;;
52978;SDS011;63430;53.186;6.598;2023-01-23T11:20:35;9.05;;;7.63;;
52978;SDS011;63430;53.186;6.598;2023-01-23T11:22:40;10.68;;;8.02;;
52978;SDS011;63430;53.186;6.598;2023-01-23T11:24:46;9.32;;;7.88;;
52978;SDS011;63430;53.186;6.598;2023-01-23T11:26:48;12.27;;;9.13;;
52978;SDS011;63430;53.186;6.598;2023-01-23T11:28:59;9.13;;;7.25;;
52978;SDS011;63430;53.186;6.598;2023-01-23T11:31:03;9.52;;;7.75;;
52978;SDS011;63430;53.186;6.598;2023-01-23T11:33:18;11.35;;;8.55;;
52978;SDS011;63430;53.186;6.598;2023-01-23T11:35:46;14.07;;;8.27;;
52978;SDS011;63430;53.186;6.598;2023-01-23T11:38:00;9.40;;;6.95;;
52978;SDS011;63430;53.186;6.598;2023-01-23T11:40:09;12.55;;;8.93;;
52978;SDS011;63430;53.186;6.598;2023-01-23T11:42:14;11.25;;;8.38;;
52978;SDS011;63430;53.186;6.598;2023-01-23T11:46:31;9.95;;;7.72;;
52978;SDS011;63430;53.186;6.598;2023-01-23T11:48:48;11.75;;;7.20;;
52978;SDS011;63430;53.186;6.598;2023-01-23T11:50:59;10.98;;;8.10;;
52978;SDS011;63430;53.186;6.598;2023-01-23T11:53:12;13.23;;;8.15;;
52978;SDS011;63430;53.186;6.598;2023-01-23T11:55:49;14.40;;;9.05;;
52978;SDS011;63430;53.186;6.598;2023-01-23T12:00:54;8.77;;;7.80;;
52978;SDS011;63430;53.186;6.598;2023-01-23T12:03:19;14.73;;;8.25;;
52978;SDS011;63430;53.186;6.598;2023-01-23T12:05:45;9.38;;;7.75;;
52978;SDS011;63430;53.186;6.598;2023-01-23T12:08:23;10.85;;;8.00;;
52978;SDS011;63430;53.186;6.598;2023-01-23T12:10:33;12.23;;;8.00;;
52978;SDS011;63430;53.186;6.598;2023-01-23T12:12:57;11.35;;;8.02;;
52978;SDS011;63430;53.186;6.598;2023-01-23T12:15:11;9.52;;;7.35;;
52978;SDS011;63430;53.186;6.598;2023-01-23T12:17:26;11.07;;;8.15;;
52978;SDS011;63430;53.186;6.598;2023-01-23T12:19:44;12.20;;;7.75;;
52978;SDS011;63430;53.186;6.598;2023-01-23T12:21:55;8.75;;;7.18;;
52978;SDS011;63430;53.186;6.598;2023-01-23T12:24:08;9.75;;;7.88;;
52978;SDS011;63430;53.186;6.598;2023-01-23T12:26:15;12.90;;;7.63;;
52978;SDS011;63430;53.186;6.598;2023-01-23T12:28:26;10.27;;;8.32;;
52978;SDS011;63430;53.186;6.598;2023-01-23T12:30:53;13.20;;;8.05;;
52978;SDS011;63430;53.186;6.598;2023-01-23T12:33:12;11.80;;;8.00;;
52978;SDS011;63430;53.186;6.598;2023-01-23T12:35:25;11.30;;;7.93;;
52978;SDS011;63430;53.186;6.598;2023-01-23T12:37:49;9.40;;;8.07;;
52978;SDS011;63430;53.186;6.598;2023-01-23T12:40:05;13.40;;;8.18;;
52978;SDS011;63430;53.186;6.598;2023-01-23T12:42:16;10.98;;;8.38;;
52978;SDS011;63430;53.186;6.598;2023-01-23T12:44:29;10.50;;;7.97;;
52978;SDS011;63430;53.186;6.598;2023-01-23T12:46:37;11.60;;;9.07;;
52978;SDS011;63430;53.186;6.598;2023-01-23T12:48:46;11.05;;;8.05;;